createdAt,value
2023-08-29T00:00:57.740Z,89.39
2023-08-29T00:03:33.283Z,89.58
2023-08-29T00:06:06.851Z,89.69
2023-08-29T00:08:34.815Z,89.81
2023-08-29T00:11:04.310Z,90.10
2023-08-29T00:13:32.570Z,90.17
2023-08-29T00:16:00.525Z,90.17
2023-08-29T00:18:28.300Z,90.13
2023-08-29T00:20:56.127Z,89.93
2023-08-29T00:23:24.061Z,89.69
2023-08-29T00:25:55.023Z,89.90
2023-08-29T00:28:22.826Z,89.75
2023-08-29T00:30:50.542Z,89.77
2023-08-29T00:33:19.667Z,89.79
2023-08-29T00:35:49.216Z,89.75
2023-08-29T00:38:17.096Z,89.69
2023-08-29T00:40:45.128Z,89.94
2023-08-29T00:43:12.845Z,89.99
2023-08-29T00:45:42.246Z,89.98
2023-08-29T00:48:10.855Z,90.06
2023-08-29T00:50:40.617Z,90.16
2023-08-29T00:53:10.977Z,90.23
2023-08-29T00:55:38.927Z,90.12
2023-08-29T00:58:07.249Z,90.31
2023-08-29T01:00:35.573Z,90.30
2023-08-29T01:03:04.305Z,90.65
2023-08-29T01:05:34.377Z,90.42
2023-08-29T01:08:05.535Z,91.02
2023-08-29T01:11:12.973Z,91.59
2023-08-29T01:14:06.805Z,91.83
2023-08-29T01:16:50.392Z,91.83
2023-08-29T01:19:24.558Z,92.23
2023-08-29T01:22:31.256Z,92.21
2023-08-29T01:25:24.837Z,92.86
2023-08-29T01:27:55.586Z,92.96
2023-08-29T01:30:24.881Z,92.81
2023-08-29T01:32:56.216Z,92.97
2023-08-29T01:35:24.468Z,92.93
2023-08-29T01:37:52.275Z,92.49
2023-08-29T01:40:20.034Z,93.00
2023-08-29T01:42:47.852Z,93.07
2023-08-29T01:45:15.784Z,93.00
2023-08-29T01:47:44.318Z,93.02
2023-08-29T01:50:15.460Z,93.15
2023-08-29T01:52:43.423Z,92.96
2023-08-29T01:55:11.245Z,93.16
2023-08-29T01:57:44.620Z,93.49
2023-08-29T02:00:14.515Z,93.13
2023-08-29T02:02:45.517Z,93.29
2023-08-29T02:05:13.272Z,93.03
2023-08-29T02:07:41.008Z,93.15
2023-08-29T02:10:10.349Z,93.27
2023-08-29T02:12:38.611Z,93.35
2023-08-29T02:15:07.701Z,93.33
2023-08-29T02:17:38.101Z,93.13
2023-08-29T02:20:10.407Z,93.09
2023-08-29T02:22:38.764Z,93.21
2023-08-29T02:25:07.583Z,93.24
2023-08-29T02:27:35.316Z,93.21
2023-08-29T02:30:05.999Z,92.98
2023-08-29T02:32:36.823Z,93.18
2023-08-29T02:35:05.482Z,93.54
2023-08-29T02:37:36.135Z,93.52
2023-08-29T02:40:09.593Z,93.25
2023-08-29T02:42:38.118Z,93.22
2023-08-29T02:45:06.866Z,93.37
2023-08-29T02:47:34.488Z,93.31
2023-08-29T02:50:04.467Z,93.55
2023-08-29T02:52:32.160Z,93.59
2023-08-29T02:54:59.806Z,93.59
2023-08-29T02:57:28.378Z,93.59
2023-08-29T02:59:56.498Z,93.63
2023-08-29T03:02:24.102Z,93.76
2023-08-29T03:04:51.776Z,93.74
2023-08-29T03:07:19.497Z,93.51
2023-08-29T03:09:47.473Z,93.82
2023-08-29T03:12:16.032Z,93.90
2023-08-29T03:14:43.862Z,93.74
2023-08-29T03:17:11.556Z,93.85
2023-08-29T03:19:39.255Z,93.69
2023-08-29T03:22:07.574Z,93.67
2023-08-29T03:24:35.518Z,93.78
2023-08-29T03:27:04.296Z,93.93
2023-08-29T03:29:32.745Z,93.70
2023-08-29T03:32:00.501Z,94.23
2023-08-29T03:34:28.875Z,93.91
2023-08-29T03:36:56.462Z,94.00
2023-08-29T03:39:24.169Z,93.94
2023-08-29T03:41:52.047Z,94.00
2023-08-29T03:44:19.801Z,93.81
2023-08-29T03:46:47.385Z,93.79
2023-08-29T03:49:15.199Z,93.84
2023-08-29T03:51:42.823Z,94.00
2023-08-29T03:54:10.571Z,94.06
2023-08-29T03:56:40.681Z,93.97
2023-08-29T03:59:08.733Z,93.96
2023-08-29T04:01:36.759Z,93.70
2023-08-29T04:04:05.004Z,93.63
2023-08-29T04:06:35.904Z,93.60
2023-08-29T04:09:08.296Z,93.61
2023-08-29T04:11:36.434Z,93.70
2023-08-29T04:14:06.021Z,93.66
2023-08-29T04:16:33.780Z,93.60
2023-08-29T04:19:01.604Z,93.56
2023-08-29T04:21:29.315Z,93.63
2023-08-29T04:23:56.985Z,93.69
2023-08-29T04:26:24.692Z,93.74
2023-08-29T04:28:53.235Z,93.62
2023-08-29T04:31:22.512Z,93.63
2023-08-29T04:33:50.348Z,93.56
2023-08-29T04:36:18.772Z,93.61
2023-08-29T04:38:48.807Z,93.64
2023-08-29T04:41:16.620Z,93.50
2023-08-29T04:43:44.466Z,93.52
2023-08-29T04:46:12.624Z,93.63
2023-08-29T04:48:40.323Z,93.42
2023-08-29T04:51:08.191Z,93.48
2023-08-29T04:53:36.005Z,93.62
2023-08-29T04:56:06.125Z,93.54
2023-08-29T04:58:38.302Z,93.59
2023-08-29T05:01:06.958Z,93.25
2023-08-29T05:03:35.359Z,93.44
2023-08-29T05:06:03.431Z,93.33
2023-08-29T05:08:36.085Z,93.03
2023-08-29T05:11:06.320Z,92.37
2023-08-29T05:13:34.117Z,91.65
2023-08-29T05:16:01.901Z,91.58
2023-08-29T05:18:30.297Z,91.68
2023-08-29T05:20:59.872Z,91.49
2023-08-29T05:23:28.001Z,91.45
2023-08-29T05:25:55.710Z,91.40
2023-08-29T05:28:23.605Z,91.46
2023-08-29T05:30:51.880Z,91.54
2023-08-29T05:33:19.711Z,90.43
2023-08-29T05:35:47.438Z,90.56
2023-08-29T05:38:15.246Z,90.10
2023-08-29T05:40:43.049Z,90.41
2023-08-29T05:43:10.648Z,89.74
2023-08-29T05:45:38.296Z,89.77
2023-08-29T05:48:06.966Z,89.09
2023-08-29T05:50:35.206Z,89.59
2023-08-29T05:53:02.932Z,89.15
2023-08-29T05:55:30.622Z,88.83
2023-08-29T05:57:59.046Z,88.82
2023-08-29T06:00:31.153Z,89.00
2023-08-29T06:02:59.149Z,88.29
2023-08-29T06:05:27.695Z,88.39
2023-08-29T06:08:05.221Z,88.75
2023-08-29T06:10:41.497Z,88.05
2023-08-29T06:13:09.704Z,87.75
2023-08-29T06:15:37.445Z,87.41
2023-08-29T06:18:06.366Z,87.52
2023-08-29T06:20:35.188Z,87.51
2023-08-29T06:23:02.975Z,87.67
2023-08-29T06:25:31.064Z,87.05
2023-08-29T06:27:58.727Z,86.74
2023-08-29T06:30:26.463Z,86.13
2023-08-29T06:32:54.237Z,85.91
2023-08-29T06:35:22.033Z,85.93
2023-08-29T06:37:51.030Z,86.19
2023-08-29T06:40:19.069Z,86.06
2023-08-29T06:42:46.776Z,85.38
2023-08-29T06:45:14.493Z,85.45
2023-08-29T06:47:42.282Z,85.44
2023-08-29T06:50:11.449Z,85.05
2023-08-29T06:52:39.265Z,85.20
2023-08-29T06:55:07.590Z,85.31
2023-08-29T06:57:35.363Z,85.29
2023-08-29T07:00:05.992Z,84.68
2023-08-29T07:02:33.824Z,83.79
2023-08-29T07:05:01.555Z,83.27
2023-08-29T07:07:30.123Z,82.19
2023-08-29T07:09:57.809Z,82.60
2023-08-29T07:12:25.505Z,82.35
2023-08-29T07:14:53.240Z,81.49
2023-08-29T07:17:22.199Z,81.31
2023-08-29T07:19:50.488Z,81.01
2023-08-29T07:22:24.123Z,79.62
2023-08-29T07:24:53.506Z,79.65
2023-08-29T07:27:21.247Z,79.75
2023-08-29T07:29:49.046Z,78.53
2023-08-29T07:32:16.951Z,78.23
2023-08-29T07:34:44.725Z,77.83
2023-08-29T07:37:13.644Z,77.32
2023-08-29T07:39:41.382Z,79.12
2023-08-29T07:42:09.171Z,79.45
2023-08-29T07:44:36.856Z,80.26
2023-08-29T07:47:14.866Z,79.91
2023-08-29T07:49:44.243Z,79.71
2023-08-29T07:52:12.081Z,79.82
2023-08-29T07:54:40.948Z,80.37
2023-08-29T07:57:08.654Z,81.02
2023-08-29T07:59:36.341Z,81.24
2023-08-29T08:02:04.290Z,80.94
2023-08-29T08:04:32.026Z,79.26
2023-08-29T08:07:00.389Z,80.27
2023-08-29T08:09:28.069Z,78.55
2023-08-29T08:11:55.992Z,77.84
2023-08-29T08:14:23.927Z,77.12
2023-08-29T08:16:52.101Z,76.78
2023-08-29T08:19:19.861Z,76.46
2023-08-29T08:21:49.531Z,76.62
2023-08-29T08:24:18.912Z,76.23
2023-08-29T08:26:47.743Z,74.56
2023-08-29T08:29:16.128Z,76.04
2023-08-29T08:31:44.072Z,76.54
2023-08-29T08:34:13.091Z,75.23
2023-08-29T08:36:40.800Z,75.05
2023-08-29T08:39:08.508Z,72.75
2023-08-29T08:41:38.561Z,72.22
2023-08-29T08:44:12.631Z,69.70
2023-08-29T08:46:41.792Z,70.99
2023-08-29T08:49:10.229Z,72.46
2023-08-29T08:51:39.164Z,73.68
2023-08-29T08:54:08.857Z,74.95
2023-08-29T08:56:40.255Z,73.27
2023-08-29T08:59:08.086Z,74.73
2023-08-29T09:01:35.976Z,71.73
2023-08-29T09:04:04.538Z,69.40
2023-08-29T09:06:32.429Z,73.77
2023-08-29T09:09:26.044Z,73.33
2023-08-29T09:12:00.164Z,71.98
2023-08-29T09:14:28.996Z,71.29
2023-08-29T09:17:05.737Z,72.39
2023-08-29T09:19:34.684Z,72.95
2023-08-29T09:22:02.721Z,72.39
2023-08-29T09:24:36.088Z,73.01
2023-08-29T09:27:10.980Z,72.87
2023-08-29T09:29:38.932Z,73.26
2023-08-29T09:32:17.359Z,71.21
2023-08-29T09:34:45.009Z,71.62
2023-08-29T09:37:13.558Z,69.41
2023-08-29T09:54:09.131Z,68.50
2023-08-29T09:56:43.074Z,66.54
2023-08-29T09:59:14.055Z,69.83
2023-08-29T10:01:45.692Z,65.71
2023-08-29T10:04:24.799Z,64.91
2023-08-29T10:07:00.483Z,65.25
2023-08-29T10:09:32.642Z,67.01
2023-08-29T10:12:02.044Z,67.50
2023-08-29T10:14:32.604Z,67.94
2023-08-29T10:17:06.085Z,67.92
2023-08-29T10:19:39.635Z,69.88
2023-08-29T10:22:10.262Z,68.80
2023-08-29T10:24:40.982Z,69.32
2023-08-29T10:27:08.956Z,68.16
2023-08-29T10:29:38.704Z,68.52
2023-08-29T10:32:08.901Z,64.79
2023-08-29T10:34:39.212Z,66.55
2023-08-29T10:37:24.709Z,63.75
2023-08-29T10:39:53.097Z,63.33
2023-08-29T10:42:21.308Z,62.58
2023-08-29T10:44:50.423Z,62.02
2023-08-29T10:47:28.788Z,62.93
2023-08-29T10:50:04.686Z,60.49
2023-08-29T10:52:43.086Z,59.85
2023-08-29T10:55:31.793Z,58.97
2023-08-29T10:58:41.357Z,60.40
2023-08-29T11:01:32.290Z,59.62
2023-08-29T11:04:17.216Z,57.46
2023-08-29T11:06:59.124Z,60.08
2023-08-29T11:09:27.698Z,62.52
2023-08-29T11:12:18.280Z,61.49
2023-08-29T11:14:57.881Z,59.62
2023-08-29T11:17:27.810Z,59.34
2023-08-29T11:20:07.447Z,57.73
2023-08-29T11:22:35.256Z,54.46
2023-08-29T11:25:09.272Z,55.00
2023-08-29T11:27:41.024Z,57.31
2023-08-29T11:30:24.946Z,57.00
2023-08-29T11:32:56.041Z,57.03
2023-08-29T11:35:23.864Z,57.89
2023-08-29T11:37:51.483Z,61.05
2023-08-29T11:40:30.623Z,57.73
2023-08-29T11:43:21.873Z,59.20
2023-08-29T11:46:03.233Z,55.87
2023-08-29T11:48:35.248Z,59.58
2023-08-29T11:51:09.708Z,58.90
2023-08-29T11:53:40.209Z,59.10
2023-08-29T11:56:11.929Z,59.96
2023-08-29T11:58:41.345Z,59.80
2023-08-29T12:01:10.300Z,62.34
2023-08-29T12:03:40.770Z,60.94
2023-08-29T12:06:15.184Z,55.32
2023-08-29T12:08:49.143Z,54.67
2023-08-29T12:11:17.959Z,56.18
2023-08-29T12:14:02.870Z,55.53
2023-08-29T12:16:30.848Z,56.06
2023-08-29T12:19:15.255Z,57.71
2023-08-29T12:21:53.910Z,59.61
2023-08-29T12:24:22.705Z,61.94
2023-08-29T12:26:50.489Z,60.98
2023-08-29T12:29:18.405Z,60.98
2023-08-29T12:31:46.233Z,61.30
2023-08-29T12:34:13.912Z,61.95
2023-08-29T12:36:41.851Z,62.39
2023-08-29T12:39:10.681Z,64.15
2023-08-29T12:41:38.586Z,63.35
2023-08-29T12:44:08.905Z,63.46
2023-08-29T12:46:36.682Z,63.45
2023-08-29T12:49:04.606Z,61.70
2023-08-29T12:51:33.610Z,62.45
2023-08-29T12:54:01.297Z,60.60
2023-08-29T12:56:29.036Z,61.87
2023-08-29T12:58:56.761Z,62.05
2023-08-29T13:01:28.977Z,64.47
2023-08-29T13:03:57.723Z,62.93
2023-08-29T13:06:26.560Z,61.75
2023-08-29T13:08:54.969Z,62.73
2023-08-29T13:11:22.793Z,62.71
2023-08-29T13:13:50.725Z,63.58
2023-08-29T13:16:19.401Z,62.85
2023-08-29T13:18:48.714Z,62.95
2023-08-29T13:21:16.418Z,64.30
2023-08-29T13:23:44.036Z,64.58
2023-08-29T13:26:13.494Z,61.98
2023-08-29T13:28:41.415Z,65.18
2023-08-29T13:31:09.315Z,63.12
2023-08-29T13:33:36.970Z,62.59
2023-08-29T13:36:05.651Z,57.57
2023-08-29T13:38:33.378Z,62.33
2023-08-29T13:41:01.049Z,60.95
2023-08-29T13:43:28.799Z,59.40
2023-08-29T13:45:56.436Z,58.61
2023-08-29T13:48:24.212Z,60.97
2023-08-29T13:50:54.193Z,61.94
2023-08-29T13:53:21.923Z,61.01
2023-08-29T13:55:51.616Z,64.08
2023-08-29T13:58:19.368Z,61.63
2023-08-29T14:00:48.878Z,64.34
2023-08-29T14:03:29.210Z,62.38
2023-08-29T14:06:04.816Z,63.32
2023-08-29T14:08:33.205Z,62.29
2023-08-29T14:11:07.581Z,64.08
2023-08-29T14:13:36.430Z,61.54
2023-08-29T14:16:05.261Z,60.39
2023-08-29T14:18:37.170Z,61.08
2023-08-29T14:21:05.236Z,59.87
2023-08-29T14:23:36.337Z,61.24
2023-08-29T14:26:04.394Z,62.08
2023-08-29T14:28:32.441Z,60.26
2023-08-29T14:31:00.130Z,56.89
2023-08-29T14:33:27.865Z,56.37
2023-08-29T14:35:57.032Z,59.17
2023-08-29T14:38:24.751Z,58.23
2023-08-29T14:40:52.445Z,59.25
2023-08-29T14:43:20.215Z,57.96
2023-08-29T14:45:47.896Z,59.96
2023-08-29T14:48:16.184Z,54.68
2023-08-29T14:50:46.839Z,54.50
2023-08-29T14:53:14.634Z,55.20
2023-08-29T14:55:42.275Z,57.07
2023-08-29T14:58:10.393Z,55.50
2023-08-29T15:00:43.617Z,56.37
2023-08-29T15:03:11.420Z,54.98
2023-08-29T15:05:39.093Z,55.21
2023-08-29T15:08:08.630Z,54.61
2023-08-29T15:10:36.961Z,57.45
2023-08-29T15:13:06.403Z,55.73
2023-08-29T15:15:38.685Z,54.20
2023-08-29T15:18:06.741Z,54.16
2023-08-29T15:20:34.988Z,56.11
2023-08-29T15:23:04.853Z,55.23
2023-08-29T15:25:32.902Z,57.67
2023-08-29T15:28:00.612Z,55.86
2023-08-29T15:30:28.329Z,53.43
2023-08-29T15:32:56.702Z,54.41
2023-08-29T15:35:24.457Z,57.48
2023-08-29T15:37:52.124Z,51.44
2023-08-29T15:40:19.923Z,54.67
2023-08-29T15:42:48.199Z,54.22
2023-08-29T15:45:17.430Z,54.62
2023-08-29T15:47:45.188Z,56.15
2023-08-29T15:50:13.158Z,56.78
2023-08-29T15:52:40.866Z,55.92
2023-08-29T15:55:09.532Z,57.65
2023-08-29T15:57:37.291Z,58.15
2023-08-29T16:00:11.357Z,61.41
2023-08-29T16:02:39.247Z,63.17
2023-08-29T16:05:07.959Z,63.29
2023-08-29T16:07:36.536Z,61.93
2023-08-29T16:10:04.952Z,61.15
2023-08-29T16:12:32.983Z,63.02
2023-08-29T16:15:01.328Z,63.54
2023-08-29T16:17:30.155Z,62.95
2023-08-29T16:19:57.873Z,63.08
2023-08-29T16:22:25.564Z,62.59
2023-08-29T16:24:55.093Z,62.20
2023-08-29T16:27:25.566Z,62.00
2023-08-29T16:29:56.276Z,62.46
2023-08-29T16:32:24.630Z,62.85
2023-08-29T16:34:54.363Z,64.11
2023-08-29T16:37:22.484Z,62.50
2023-08-29T16:39:50.176Z,61.64
2023-08-29T16:42:17.805Z,61.99
2023-08-29T16:44:45.945Z,60.82
2023-08-29T16:47:13.691Z,58.45
2023-08-29T16:49:41.672Z,60.38
2023-08-29T16:52:09.968Z,60.38
2023-08-29T16:54:38.452Z,58.37
2023-08-29T16:57:06.539Z,60.03
2023-08-29T17:00:00.174Z,60.64
2023-08-29T17:02:29.109Z,60.33
2023-08-29T17:04:57.847Z,62.65
2023-08-29T17:07:26.629Z,64.30
2023-08-29T17:09:54.481Z,60.97
2023-08-29T17:12:24.372Z,65.28
2023-08-29T17:14:53.451Z,67.04
2023-08-29T17:17:21.806Z,66.52
2023-08-29T17:19:49.594Z,67.46
2023-08-29T17:22:17.298Z,67.40
2023-08-29T17:24:45.263Z,67.93
2023-08-29T17:27:13.769Z,67.72
2023-08-29T17:29:41.434Z,69.33
2023-08-29T17:32:09.318Z,69.30
2023-08-29T17:34:37.891Z,69.91
2023-08-29T17:37:05.710Z,70.79
2023-08-29T17:39:34.655Z,71.79
2023-08-29T17:42:02.465Z,72.56
2023-08-29T17:44:30.177Z,72.75
2023-08-29T17:46:58.000Z,73.02
2023-08-29T17:49:25.837Z,73.54
2023-08-29T17:51:53.808Z,74.31
2023-08-29T17:54:21.585Z,74.69
2023-08-29T17:56:50.412Z,75.17
2023-08-29T17:59:18.275Z,75.83
2023-08-29T18:01:46.122Z,76.52
2023-08-29T18:04:13.748Z,76.95
2023-08-29T18:06:41.521Z,76.68
2023-08-29T18:09:10.186Z,76.85
2023-08-29T18:11:38.021Z,77.78
2023-08-29T18:14:06.359Z,78.58
2023-08-29T18:16:34.166Z,78.78
2023-08-29T18:19:03.199Z,78.82
2023-08-29T18:21:31.717Z,78.66
2023-08-29T18:23:59.586Z,79.19
2023-08-29T18:26:27.622Z,79.59
2023-08-29T18:28:55.389Z,79.70
2023-08-29T18:31:23.416Z,79.73
2023-08-29T18:33:51.294Z,79.26
2023-08-29T18:36:19.081Z,79.47
2023-08-29T18:38:46.888Z,79.19
2023-08-29T18:41:14.601Z,79.31
2023-08-29T18:43:42.372Z,79.63
2023-08-29T18:46:10.290Z,79.71
2023-08-29T18:48:38.002Z,80.14
2023-08-29T18:51:07.539Z,80.50
2023-08-29T18:53:35.507Z,80.34
2023-08-29T18:56:03.344Z,80.53
2023-08-29T18:58:37.202Z,80.61
2023-08-29T19:01:05.469Z,80.58
2023-08-29T19:03:33.320Z,80.23
2023-08-29T19:06:15.053Z,80.58
2023-08-29T19:08:43.034Z,80.87
2023-08-29T19:11:17.344Z,79.89
2023-08-29T19:13:45.747Z,79.89
2023-08-29T19:16:14.481Z,80.29
2023-08-29T19:18:43.858Z,80.83
2023-08-29T19:21:11.693Z,81.06
2023-08-29T19:23:39.370Z,81.43
2023-08-29T19:26:07.048Z,79.25
2023-08-29T19:28:34.817Z,79.25
2023-08-29T19:31:03.418Z,78.12
2023-08-29T19:33:31.539Z,78.09
2023-08-29T19:36:10.541Z,78.29
2023-08-29T19:38:40.336Z,78.43
2023-08-29T19:41:10.665Z,79.12
2023-08-29T19:43:38.662Z,79.00
2023-08-29T19:46:06.531Z,79.59
2023-08-29T19:48:34.251Z,79.49
2023-08-29T19:51:02.153Z,79.30
2023-08-29T19:53:30.096Z,79.44
2023-08-29T19:55:57.871Z,79.43
2023-08-29T19:58:25.722Z,79.94
2023-08-29T20:00:54.058Z,81.92
2023-08-29T20:03:22.087Z,82.53
2023-08-29T20:05:50.186Z,82.70
2023-08-29T20:08:17.873Z,83.04
2023-08-29T20:10:45.591Z,83.66
2023-08-29T20:13:13.364Z,83.60
2023-08-29T20:15:46.041Z,83.25
2023-08-29T20:18:14.882Z,83.22
2023-08-29T20:20:43.787Z,83.87
2023-08-29T20:23:11.613Z,82.99
2023-08-29T20:25:40.286Z,83.12
2023-08-29T20:28:08.611Z,83.37
2023-08-29T20:30:38.602Z,83.98
2023-08-29T20:33:07.158Z,84.23
2023-08-29T20:35:35.857Z,84.65
2023-08-29T20:38:05.684Z,84.75
2023-08-29T20:40:33.744Z,84.94
2023-08-29T20:43:01.518Z,84.81
2023-08-29T20:45:32.601Z,84.72
2023-08-29T20:48:00.400Z,83.97
2023-08-29T20:50:28.703Z,84.74
2023-08-29T20:52:57.032Z,83.82
2023-08-29T20:55:24.706Z,85.33
2023-08-29T20:57:52.517Z,85.94
2023-08-29T21:00:20.438Z,85.99
2023-08-29T21:02:48.418Z,85.40
2023-08-29T21:05:16.263Z,85.20
2023-08-29T21:07:44.014Z,85.91
2023-08-29T21:10:11.744Z,85.61
2023-08-29T21:12:39.693Z,85.46
2023-08-29T21:15:08.897Z,85.77
2023-08-29T21:17:36.972Z,85.90
2023-08-29T21:20:05.695Z,85.68
2023-08-29T21:22:33.546Z,85.96
2023-08-29T21:25:01.392Z,86.47
2023-08-29T21:27:29.365Z,86.96
2023-08-29T21:29:57.132Z,87.09
2023-08-29T21:32:24.930Z,87.29
2023-08-29T21:34:52.599Z,87.56
2023-08-29T21:37:20.301Z,87.63
2023-08-29T21:39:47.998Z,87.15
2023-08-29T21:42:16.832Z,87.27
2023-08-29T21:44:44.543Z,87.10
2023-08-29T21:47:12.174Z,86.98
2023-08-29T21:49:39.806Z,87.14
2023-08-29T21:52:07.674Z,87.23
2023-08-29T21:54:35.292Z,87.59
2023-08-29T21:57:03.019Z,87.48
2023-08-29T21:59:30.741Z,87.09
2023-08-29T22:01:59.162Z,86.38
2023-08-29T22:04:26.872Z,86.97
2023-08-29T22:06:54.549Z,86.36
2023-08-29T22:09:22.188Z,86.50
2023-08-29T22:11:49.957Z,86.58
2023-08-29T22:14:17.890Z,86.52
2023-08-29T22:16:45.595Z,86.31
2023-08-29T22:19:13.304Z,85.51
2023-08-29T22:21:41.000Z,85.14
2023-08-29T22:24:09.800Z,85.95
2023-08-29T22:26:37.470Z,86.13
2023-08-29T22:29:05.309Z,86.50
2023-08-29T22:31:33.458Z,86.30
2023-08-29T22:34:01.273Z,85.88
2023-08-29T22:36:28.948Z,86.20
2023-08-29T22:38:56.664Z,86.27
2023-08-29T22:41:34.191Z,86.12
2023-08-29T22:44:06.918Z,86.61
2023-08-29T22:46:34.895Z,86.84
2023-08-29T22:49:02.447Z,87.07
2023-08-29T22:51:30.111Z,87.34
2023-08-29T22:53:58.554Z,87.59
2023-08-29T22:56:26.340Z,87.71
2023-08-29T22:58:54.697Z,87.78
2023-08-29T23:01:22.807Z,88.09
2023-08-29T23:03:52.122Z,88.33
2023-08-29T23:06:23.226Z,88.41
2023-08-29T23:08:51.977Z,88.80
2023-08-29T23:11:20.134Z,89.14
2023-08-29T23:13:52.104Z,89.61
2023-08-29T23:16:20.817Z,89.81
2023-08-29T23:18:48.550Z,89.63
2023-08-29T23:21:16.195Z,89.60
2023-08-29T23:23:43.938Z,90.43
2023-08-29T23:26:11.665Z,90.80
2023-08-29T23:28:39.654Z,90.97
2023-08-29T23:31:07.782Z,91.17
2023-08-29T23:33:55.177Z,91.34
2023-08-29T23:36:23.826Z,91.18
2023-08-29T23:38:52.970Z,91.28
2023-08-29T23:41:20.841Z,91.13
2023-08-29T23:43:48.670Z,91.18
2023-08-29T23:46:16.506Z,91.10
2023-08-29T23:48:44.228Z,91.13
2023-08-29T23:51:12.165Z,91.23
2023-08-29T23:53:40.796Z,90.91
2023-08-29T23:56:08.615Z,91.15
2023-08-29T23:58:36.857Z,91.38
